Time;durP1;ratioP1;P1;durP2;ratioP2;P2;SDS_P1;SDS_P2;PMS_P1;PMS_P2;Temp;Humidity;BMP_temperature;BMP_pressure;BME280_temperature;BME280_humidity;BME280_pressure;Samples;Min_cycle;Max_cycle;Signal;HPM_P1;HPM_P2
2021/12/23 00:00:44;;;;;;;36.08;19.23;;;-1.60;99.90;;;;;;4751487;30;20047;-84
2021/12/23 00:03:10;;;;;;;32.30;19.65;;;-1.50;99.90;;;;;;4762827;29;20047;-84
2021/12/23 00:05:36;;;;;;;35.92;19.38;;;-1.50;99.90;;;;;;4746651;30;20118;-84
2021/12/23 00:08:01;;;;;;;36.17;19.75;;;-1.50;99.90;;;;;;4736242;30;20523;-84
2021/12/23 00:10:27;;;;;;;35.30;18.83;;;-1.50;99.90;;;;;;4747525;29;20055;-84
2021/12/23 00:12:53;;;;;;;34.38;19.88;;;-1.50;99.90;;;;;;4733054;30;20054;-84
2021/12/23 00:16:00;;;;;;;41.67;21.60;;;-1.50;99.90;;;;;;4730353;30;20043;-84
2021/12/23 00:23:59;;;;;;;35.45;19.90;;;-1.40;99.90;;;;;;4799180;24;20463;-86
2021/12/23 00:26:26;;;;;;;37.13;20.80;;;-1.50;99.90;;;;;;4770525;29;20495;-87
2021/12/23 00:28:52;;;;;;;37.40;19.83;;;-1.50;99.90;;;;;;4772545;29;20038;-88
2021/12/23 00:31:18;;;;;;;37.70;19.20;;;-1.50;99.90;;;;;;4782608;29;20047;-87
2021/12/23 00:33:44;;;;;;;37.90;19.92;;;-1.40;99.90;;;;;;4779608;29;20075;-87
2021/12/23 00:36:12;;;;;;;33.53;18.85;;;-1.40;99.90;;;;;;4768024;30;20058;-87
2021/12/23 00:38:53;;;;;;;41.50;19.88;;;-1.30;99.90;;;;;;4772266;29;20039;-87
2021/12/23 00:41:20;;;;;;;34.20;18.90;;;-1.40;99.90;;;;;;4773770;29;20074;-87
2021/12/23 00:43:46;;;;;;;38.83;19.88;;;-1.30;99.90;;;;;;4782978;29;20122;-87
2021/12/23 00:46:12;;;;;;;39.13;20.25;;;-1.30;99.90;;;;;;4783878;29;20043;-87
2021/12/23 00:48:39;;;;;;;31.70;18.10;;;-1.30;99.90;;;;;;4749172;29;20049;-87
2021/12/23 00:51:06;;;;;;;31.38;18.05;;;-1.40;99.90;;;;;;4770122;29;20468;-87
2021/12/23 00:53:38;;;;;;;34.33;18.05;;;-1.20;99.90;;;;;;4783737;29;20077;-87
2021/12/23 00:56:04;;;;;;;32.15;18.95;;;-1.20;99.90;;;;;;4774868;29;20042;-87
2021/12/23 00:58:30;;;;;;;32.80;18.25;;;-1.20;99.90;;;;;;4785570;29;20059;-88
2021/12/23 01:00:58;;;;;;;31.92;17.52;;;-1.20;99.90;;;;;;4770819;29;20084;-87
2021/12/23 01:03:24;;;;;;;38.03;18.15;;;-1.20;99.90;;;;;;4755846;29;20049;-87
2021/12/23 01:05:50;;;;;;;35.80;18.15;;;-1.10;99.90;;;;;;4771132;29;20051;-87
2021/12/23 01:08:19;;;;;;;31.02;18.02;;;-1.20;99.90;;;;;;4771321;29;20503;-87
2021/12/23 01:10:53;;;;;;;30.02;17.20;;;-1.20;99.90;;;;;;4772376;29;20047;-88
2021/12/23 01:13:20;;;;;;;38.33;18.42;;;-1.10;99.90;;;;;;4781520;29;20054;-88
2021/12/23 01:16:02;;;;;;;32.75;18.15;;;-1.10;99.90;;;;;;4779004;29;20042;-88
2021/12/23 01:18:31;;;;;;;31.77;18.00;;;-1.10;99.90;;;;;;4782055;29;20051;-88
2021/12/23 01:21:15;;;;;;;31.85;18.30;;;-1.10;99.90;;;;;;4785797;29;20050;-87
2021/12/23 01:23:44;;;;;;;28.90;18.15;;;-1.10;99.90;;;;;;4774088;29;20062;-87
2021/12/23 01:26:10;;;;;;;35.30;17.50;;;-1.00;99.90;;;;;;4787077;29;20102;-88
2021/12/23 01:28:36;;;;;;;30.80;17.55;;;-1.00;99.90;;;;;;4783417;29;20057;-88
2021/12/23 01:31:05;;;;;;;32.22;17.63;;;-1.00;99.90;;;;;;4787559;29;20129;-88
2021/12/23 01:33:31;;;;;;;33.22;17.52;;;-1.00;99.90;;;;;;4786436;29;20058;-88
2021/12/23 01:35:56;;;;;;;34.28;18.75;;;-1.00;99.90;;;;;;4771628;29;20046;-88
2021/12/23 01:38:22;;;;;;;30.73;18.02;;;-1.00;99.90;;;;;;4772119;29;20042;-88
2021/12/23 01:40:48;;;;;;;29.77;17.88;;;-1.00;99.90;;;;;;4771850;29;20093;-88
2021/12/23 01:43:17;;;;;;;32.42;17.92;;;-1.00;99.90;;;;;;4787020;29;20047;-88
2021/12/23 01:45:45;;;;;;;35.75;18.23;;;-1.00;99.90;;;;;;4786990;29;20560;-88
2021/12/23 01:48:11;;;;;;;31.60;18.38;;;-0.90;99.90;;;;;;4786423;29;20141;-87
2021/12/23 01:50:39;;;;;;;34.58;18.73;;;-0.90;99.90;;;;;;4771587;29;20039;-87
2021/12/23 01:53:04;;;;;;;36.25;19.02;;;-0.90;99.90;;;;;;4771066;29;20082;-87
2021/12/23 01:55:30;;;;;;;35.65;19.42;;;-0.90;99.90;;;;;;4787394;29;20085;-86
2021/12/23 01:57:57;;;;;;;39.70;21.10;;;-0.90;99.90;;;;;;4772290;29;20068;-88
2021/12/23 02:00:27;;;;;;;35.92;20.50;;;-1.00;99.90;;;;;;4786900;29;20521;-88
2021/12/23 02:02:54;;;;;;;33.10;18.95;;;-0.90;99.90;;;;;;4801849;29;20051;-88
2021/12/23 02:05:21;;;;;;;40.30;20.38;;;-0.90;99.90;;;;;;4785772;29;20046;-89
2021/12/23 02:07:47;;;;;;;34.50;19.60;;;-0.90;99.90;;;;;;4768168;30;20507;-88
2021/12/23 02:10:14;;;;;;;34.75;20.17;;;-0.90;99.90;;;;;;4750512;29;20058;-85
2021/12/23 02:12:48;;;;;;;35.80;19.65;;;-0.90;99.90;;;;;;4762433;29;20061;-86
2021/12/23 02:15:15;;;;;;;37.20;20.40;;;-0.90;99.90;;;;;;4778146;29;20043;-87
2021/12/23 02:17:41;;;;;;;37.08;18.52;;;-0.90;99.90;;;;;;4782247;29;20050;-87
2021/12/23 02:20:10;;;;;;;36.53;19.30;;;-0.90;99.90;;;;;;4784229;29;20046;-89
2021/12/23 02:22:36;;;;;;;35.60;18.20;;;-0.90;99.90;;;;;;4780060;29;20046;-88
2021/12/23 02:25:06;;;;;;;37.72;18.83;;;-0.90;99.90;;;;;;4769287;29;20065;-87
2021/12/23 02:27:31;;;;;;;34.72;19.45;;;-0.90;99.90;;;;;;4784720;29;20507;-88
2021/12/23 02:29:57;;;;;;;37.90;19.73;;;-1.00;99.90;;;;;;4767298;29;20031;-87
2021/12/23 02:32:23;;;;;;;37.85;19.90;;;-0.90;99.90;;;;;;4767426;29;20492;-87
2021/12/23 02:34:49;;;;;;;31.98;18.20;;;-0.90;99.90;;;;;;4750761;29;20039;-86
2021/12/23 02:37:15;;;;;;;33.88;19.10;;;-0.90;99.90;;;;;;4750806;29;20120;-86
2021/12/23 02:39:42;;;;;;;28.42;17.48;;;-0.90;99.90;;;;;;4774167;29;20066;-86
2021/12/23 02:42:09;;;;;;;30.50;17.65;;;-0.80;99.90;;;;;;4780313;29;20042;-87
2021/12/23 02:44:34;;;;;;;30.48;17.15;;;-0.90;99.90;;;;;;4775200;29;20047;-85
2021/12/23 02:47:00;;;;;;;30.48;18.00;;;-0.80;99.90;;;;;;4775007;29;20059;-87
2021/12/23 02:49:26;;;;;;;32.70;17.27;;;-0.80;99.90;;;;;;4768204;29;20042;-85
2021/12/23 02:51:52;;;;;;;33.40;18.50;;;-0.80;99.90;;;;;;4752500;29;20039;-87
2021/12/23 02:54:18;;;;;;;31.92;17.52;;;-0.80;99.90;;;;;;4777794;29;20514;-86
2021/12/23 02:56:44;;;;;;;33.55;19.20;;;-0.80;99.90;;;;;;4780671;29;20046;-85
2021/12/23 02:59:10;;;;;;;32.85;17.30;;;-0.70;99.90;;;;;;4780973;29;20051;-86
2021/12/23 03:01:36;;;;;;;29.17;16.30;;;-0.80;99.90;;;;;;4776882;29;20043;-86
2021/12/23 03:04:02;;;;;;;33.45;18.23;;;-0.70;99.90;;;;;;4781359;29;20057;-86
2021/12/23 03:06:28;;;;;;;29.58;16.98;;;-0.70;99.90;;;;;;4765509;29;20058;-86
2021/12/23 03:08:56;;;;;;;34.55;19.02;;;-0.70;99.90;;;;;;4777453;29;20054;-86
2021/12/23 03:11:24;;;;;;;36.25;18.20;;;-0.70;99.90;;;;;;4777832;29;20520;-86
2021/12/23 03:13:50;;;;;;;32.38;17.05;;;-0.70;99.90;;;;;;4777053;29;20049;-87
2021/12/23 03:16:22;;;;;;;29.77;17.23;;;-0.70;99.90;;;;;;4775559;29;20054;-85
2021/12/23 03:18:48;;;;;;;31.97;18.07;;;-0.80;99.90;;;;;;4778790;29;20054;-85
2021/12/23 03:21:14;;;;;;;36.58;18.23;;;-0.80;99.90;;;;;;4750465;29;20521;-85
2021/12/23 03:23:40;;;;;;;33.47;17.88;;;-0.70;99.90;;;;;;4776246;29;20043;-87
2021/12/23 03:26:06;;;;;;;32.40;17.05;;;-0.70;99.90;;;;;;4751099;29;20100;-86
2021/12/23 03:28:33;;;;;;;34.65;18.75;;;-0.70;99.90;;;;;;4780398;29;20136;-88
2021/12/23 03:31:00;;;;;;;31.83;18.48;;;-0.80;99.90;;;;;;4770930;29;20042;-88
2021/12/23 03:33:26;;;;;;;29.65;18.67;;;-0.80;99.90;;;;;;4771390;29;20122;-87
2021/12/23 03:35:53;;;;;;;33.60;18.55;;;-0.80;99.90;;;;;;4758236;29;20038;-88
2021/12/23 03:38:19;;;;;;;33.72;20.20;;;-0.80;99.90;;;;;;4787194;29;20129;-86
2021/12/23 03:40:45;;;;;;;32.88;19.33;;;-0.80;99.90;;;;;;4771411;29;20051;-88
2021/12/23 03:43:12;;;;;;;31.75;18.80;;;-0.80;99.90;;;;;;4758335;29;20038;-88
2021/12/23 03:45:44;;;;;;;31.45;17.75;;;-0.80;99.90;;;;;;4756193;29;20043;-86
2021/12/23 03:48:11;;;;;;;33.85;18.27;;;-0.80;99.90;;;;;;4780510;29;20047;-86
2021/12/23 03:50:37;;;;;;;31.75;17.65;;;-0.70;99.90;;;;;;4785267;29;20109;-85
2021/12/23 03:53:03;;;;;;;33.03;18.00;;;-0.70;99.90;;;;;;4765116;29;20468;-90
2021/12/23 03:55:29;;;;;;;32.33;16.67;;;-0.70;99.90;;;;;;4781784;29;20046;-85
2021/12/23 03:57:55;;;;;;;31.77;17.95;;;-0.70;99.90;;;;;;4765684;30;20487;-88
2021/12/23 04:00:22;;;;;;;30.48;17.38;;;-0.60;99.90;;;;;;4754084;29;20051;-86
2021/12/23 04:02:49;;;;;;;35.60;17.98;;;-0.70;99.90;;;;;;4770527;29;20049;-88
2021/12/23 04:05:15;;;;;;;27.35;16.90;;;-0.70;99.90;;;;;;4755155;29;20098;-86
2021/12/23 04:07:42;;;;;;;34.00;18.58;;;-0.70;99.90;;;;;;4766130;29;20055;-89
2021/12/23 04:10:11;;;;;;;32.38;18.67;;;-0.70;99.90;;;;;;4769010;29;20522;-85
2021/12/23 04:12:37;;;;;;;31.33;17.95;;;-0.60;99.90;;;;;;4786139;29;20082;-85
2021/12/23 04:15:05;;;;;;;34.83;18.05;;;-0.60;99.90;;;;;;4764975;29;20096;-86
2021/12/23 04:17:31;;;;;;;35.83;18.83;;;-0.60;99.90;;;;;;4780186;29;20142;-89
2021/12/23 04:20:13;;;;;;;32.80;18.83;;;-0.60;99.90;;;;;;4766464;29;20625;-85
2021/12/23 04:22:39;;;;;;;36.72;18.63;;;-0.60;99.90;;;;;;4780226;29;20046;-89
2021/12/23 04:25:05;;;;;;;31.27;17.90;;;-0.60;99.90;;;;;;4782134;29;20049;-88
2021/12/23 04:27:31;;;;;;;31.33;16.98;;;-0.60;99.90;;;;;;4752571;29;20051;-88
2021/12/23 04:29:57;;;;;;;31.65;18.23;;;-0.50;99.90;;;;;;4771163;29;20426;-85
2021/12/23 04:32:22;;;;;;;30.33;17.38;;;-0.50;99.90;;;;;;4795940;29;20513;-86
2021/12/23 04:34:48;;;;;;;32.10;15.98;;;-0.50;99.90;;;;;;4769265;29;20051;-86
2021/12/23 04:37:16;;;;;;;34.08;18.20;;;-0.50;99.90;;;;;;4766717;29;20138;-86
2021/12/23 04:39:42;;;;;;;29.13;16.92;;;-0.50;99.90;;;;;;4754525;29;20055;-86
2021/12/23 04:42:08;;;;;;;32.95;18.30;;;-0.50;99.90;;;;;;4782666;29;20125;-85
2021/12/23 04:44:33;;;;;;;34.80;18.40;;;-0.50;99.90;;;;;;4767300;29;20090;-86
2021/12/23 04:46:59;;;;;;;32.78;17.02;;;-0.40;99.90;;;;;;4782178;29;20249;-86
2021/12/23 04:49:25;;;;;;;30.98;18.05;;;-0.50;99.90;;;;;;4752195;30;20346;-85
2021/12/23 04:51:51;;;;;;;33.08;18.10;;;-0.30;99.90;;;;;;4752257;29;20515;-85
2021/12/23 04:54:17;;;;;;;33.70;17.17;;;-0.40;99.90;;;;;;4755942;29;20104;-89
2021/12/23 04:56:43;;;;;;;30.92;17.02;;;-0.40;99.90;;;;;;4768911;29;20084;-86
2021/12/23 04:59:08;;;;;;;31.48;18.10;;;-0.40;99.90;;;;;;4767264;29;20042;-85
2021/12/23 05:01:34;;;;;;;28.80;17.48;;;-0.40;99.90;;;;;;4750810;29;20082;-85
2021/12/23 05:04:00;;;;;;;32.60;18.10;;;-0.40;99.90;;;;;;4752150;29;20046;-86
2021/12/23 05:06:26;;;;;;;28.50;16.02;;;-0.40;99.90;;;;;;4782784;29;20138;-86
2021/12/23 05:08:53;;;;;;;32.03;17.95;;;-0.40;99.90;;;;;;4777438;29;20368;-87
2021/12/23 05:11:19;;;;;;;31.10;16.10;;;-0.40;99.90;;;;;;4768000;29;20039;-88
2021/12/23 05:13:48;;;;;;;30.05;17.15;;;-0.40;99.90;;;;;;4767874;29;20123;-87
2021/12/23 05:16:18;;;;;;;31.70;17.10;;;-0.30;99.90;;;;;;4768725;29;20548;-88
2021/12/23 05:18:45;;;;;;;32.45;16.83;;;-0.30;99.90;;;;;;4767103;29;20043;-88
2021/12/23 05:21:11;;;;;;;26.55;16.00;;;-0.30;99.90;;;;;;4753693;29;20349;-90
2021/12/23 05:23:37;;;;;;;34.28;17.45;;;-0.20;99.90;;;;;;4752761;29;20360;-87
2021/12/23 05:26:06;;;;;;;33.35;18.25;;;-0.30;99.90;;;;;;4753989;29;20082;-89
2021/12/23 05:28:32;;;;;;;32.28;17.92;;;-0.30;99.90;;;;;;4776501;29;20090;-88
2021/12/23 05:30:59;;;;;;;30.48;18.00;;;-0.20;99.90;;;;;;4776519;29;20131;-86
2021/12/23 05:33:24;;;;;;;32.17;18.13;;;-0.30;99.90;;;;;;4768061;29;20050;-87
2021/12/23 05:35:50;;;;;;;32.75;17.25;;;-0.20;99.90;;;;;;4752858;29;20039;-87
2021/12/23 05:38:16;;;;;;;32.35;17.23;;;-0.20;99.90;;;;;;4783825;29;20286;-85
2021/12/23 05:40:42;;;;;;;29.15;16.20;;;-0.20;99.90;;;;;;4769180;29;20198;-87
2021/12/23 05:43:08;;;;;;;33.17;18.17;;;-0.20;99.90;;;;;;4752202;29;20126;-87
2021/12/23 05:45:34;;;;;;;33.40;18.10;;;-0.20;99.90;;;;;;4752448;29;20503;-86
2021/12/23 05:48:00;;;;;;;31.23;16.85;;;-0.20;99.90;;;;;;4765152;29;20503;-88
2021/12/23 05:50:26;;;;;;;32.67;17.13;;;-0.20;99.90;;;;;;4780018;29;20039;-89
2021/12/23 05:52:52;;;;;;;29.45;17.05;;;-0.20;99.90;;;;;;4784869;29;20107;-85
2021/12/23 05:55:21;;;;;;;34.10;17.58;;;-0.20;99.90;;;;;;4796194;29;20034;-86
2021/12/23 05:57:48;;;;;;;31.77;18.23;;;-0.20;99.90;;;;;;4767229;29;20103;-88
2021/12/23 06:00:23;;;;;;;33.75;18.52;;;-0.20;99.90;;;;;;4780428;29;20462;-89
2021/12/23 06:02:50;;;;;;;34.25;17.30;;;-0.20;99.90;;;;;;4783835;29;20420;-91
2021/12/23 06:05:16;;;;;;;30.08;16.15;;;-0.20;99.90;;;;;;4780965;29;20138;-86
2021/12/23 06:07:43;;;;;;;35.03;17.50;;;-0.10;99.90;;;;;;4768195;29;20046;-88
2021/12/23 06:10:10;;;;;;;31.50;17.05;;;-0.20;99.90;;;;;;4779917;29;20504;-86
2021/12/23 06:12:37;;;;;;;32.35;17.85;;;-0.20;99.90;;;;;;4781206;29;20047;-88
2021/12/23 06:15:03;;;;;;;33.38;17.77;;;-0.20;99.90;;;;;;4766443;29;20363;-87
2021/12/23 06:17:29;;;;;;;32.70;18.92;;;-0.20;99.90;;;;;;4770427;29;20446;-88
2021/12/23 06:19:55;;;;;;;32.22;17.17;;;-0.30;99.90;;;;;;4783165;29;20098;-87
2021/12/23 06:22:21;;;;;;;31.98;17.38;;;-0.20;99.90;;;;;;4764846;29;20406;-86
2021/12/23 06:24:48;;;;;;;36.47;19.55;;;-0.20;99.90;;;;;;4765434;29;20174;-87
2021/12/23 06:27:15;;;;;;;31.23;17.73;;;-0.20;99.90;;;;;;4746294;29;20047;-85
2021/12/23 06:29:41;;;;;;;34.50;19.45;;;-0.20;99.90;;;;;;4784754;29;20038;-89
2021/12/23 06:32:07;;;;;;;32.83;17.55;;;-0.10;99.90;;;;;;4781587;29;20461;-87
2021/12/23 06:34:33;;;;;;;29.73;17.02;;;-0.20;99.90;;;;;;4772623;29;20044;-86
2021/12/23 06:36:59;;;;;;;33.70;18.95;;;-0.20;99.90;;;;;;4767614;29;20054;-87
2021/12/23 06:39:25;;;;;;;33.08;19.42;;;-0.20;99.90;;;;;;4773043;29;20054;-89
2021/12/23 06:41:51;;;;;;;34.63;18.30;;;-0.20;99.90;;;;;;4768798;29;20114;-86
2021/12/23 06:44:17;;;;;;;34.28;18.10;;;-0.10;99.90;;;;;;4745529;29;20043;-87
2021/12/23 06:46:43;;;;;;;32.83;17.67;;;-0.20;99.90;;;;;;4769235;29;20567;-85
2021/12/23 06:49:08;;;;;;;33.83;17.00;;;-0.10;99.90;;;;;;4784133;29;20076;-87
2021/12/23 06:51:35;;;;;;;34.17;18.98;;;0.00;99.90;;;;;;4759102;29;20435;-90
2021/12/23 06:54:02;;;;;;;35.42;18.15;;;-0.10;99.90;;;;;;4755580;29;20067;-85
2021/12/23 06:56:28;;;;;;;35.72;19.58;;;-0.10;99.90;;;;;;4754256;29;20328;-86
2021/12/23 06:58:54;;;;;;;34.42;19.20;;;-0.10;99.90;;;;;;4778257;29;20042;-86
2021/12/23 07:01:20;;;;;;;33.22;17.60;;;-0.10;99.90;;;;;;4783914;29;20043;-88
2021/12/23 07:06:35;;;;;;;35.45;18.27;;;-0.10;99.90;;;;;;4800596;29;20054;-86
2021/12/23 07:09:05;;;;;;;33.15;17.33;;;0.00;99.90;;;;;;4781728;29;20130;-91
2021/12/23 07:11:32;;;;;;;38.95;20.70;;;0.00;99.90;;;;;;4780423;29;20075;-86
2021/12/23 07:13:58;;;;;;;34.67;19.65;;;-0.10;99.90;;;;;;4782947;29;20112;-87
2021/12/23 07:16:24;;;;;;;36.53;20.05;;;-0.10;99.90;;;;;;4802201;29;20047;-87
2021/12/23 07:18:50;;;;;;;43.50;20.05;;;-0.10;99.90;;;;;;4756904;29;20119;-89
2021/12/23 07:21:16;;;;;;;32.30;18.98;;;-0.10;99.90;;;;;;4772458;29;20043;-85
2021/12/23 07:23:42;;;;;;;35.83;20.33;;;-0.10;99.90;;;;;;4756214;29;20138;-85
2021/12/23 07:26:10;;;;;;;33.55;18.67;;;0.00;99.90;;;;;;4754672;29;20130;-88
2021/12/23 07:28:36;;;;;;;38.95;19.92;;;0.00;99.90;;;;;;4789400;29;20046;-86
2021/12/23 07:31:02;;;;;;;35.10;19.63;;;-0.10;99.90;;;;;;4753382;29;20058;-86
2021/12/23 07:33:28;;;;;;;34.53;19.67;;;0.00;99.90;;;;;;4754480;29;20077;-86
2021/12/23 07:35:53;;;;;;;34.97;19.17;;;0.00;99.90;;;;;;4766272;29;20515;-89
2021/12/23 07:38:19;;;;;;;34.63;20.08;;;-0.10;99.90;;;;;;4770174;29;20047;-89
2021/12/23 07:40:46;;;;;;;39.17;20.08;;;0.00;99.90;;;;;;4756418;29;20137;-84
2021/12/23 07:43:42;;;;;;;40.95;20.30;;;0.00;99.90;;;;;;4772111;29;20047;-87
2021/12/23 07:46:10;;;;;;;36.95;19.52;;;0.00;99.90;;;;;;4788131;29;20112;-86
2021/12/23 07:48:36;;;;;;;39.20;21.10;;;0.00;99.90;;;;;;4771574;29;20119;-87
2021/12/23 07:51:03;;;;;;;38.20;20.65;;;0.00;99.90;;;;;;4783039;29;20554;-87
2021/12/23 07:53:29;;;;;;;37.10;20.73;;;-0.10;99.90;;;;;;4767716;29;20051;-85
2021/12/23 07:55:55;;;;;;;35.55;20.85;;;0.00;99.90;;;;;;4756080;29;20149;-87
2021/12/23 07:58:21;;;;;;;40.85;21.33;;;0.00;99.90;;;;;;4778104;29;20042;-89
2021/12/23 08:00:47;;;;;;;39.95;21.27;;;0.00;99.90;;;;;;4768412;29;20469;-88
2021/12/23 08:03:13;;;;;;;40.67;20.38;;;-0.10;99.90;;;;;;4781443;29;20130;-86
2021/12/23 08:05:38;;;;;;;37.00;19.83;;;0.00;99.90;;;;;;4752477;29;20499;-88
2021/12/23 08:08:05;;;;;;;40.95;21.13;;;0.10;99.90;;;;;;4785535;29;20054;-87
2021/12/23 08:10:31;;;;;;;37.67;20.25;;;0.10;99.90;;;;;;4782971;29;20054;-85
2021/12/23 08:12:57;;;;;;;45.65;23.20;;;0.10;99.90;;;;;;4751831;30;20100;-85
2021/12/23 08:15:22;;;;;;;43.65;21.67;;;0.10;99.90;;;;;;4768900;29;20043;-86
2021/12/23 08:17:49;;;;;;;43.67;22.65;;;0.10;99.90;;;;;;4770760;29;20057;-87
2021/12/23 08:20:16;;;;;;;39.35;21.33;;;0.20;99.90;;;;;;4770071;29;20095;-86
2021/12/23 08:22:43;;;;;;;38.17;18.35;;;0.10;99.90;;;;;;4773016;29;20078;-85
2021/12/23 08:25:10;;;;;;;39.92;20.95;;;0.10;99.90;;;;;;4781274;29;20061;-89
2021/12/23 08:27:36;;;;;;;39.97;20.90;;;0.10;99.90;;;;;;4784202;29;20051;-88
2021/12/23 08:30:08;;;;;;;43.13;20.98;;;0.10;99.90;;;;;;4783989;29;20464;-87
2021/12/23 08:32:34;;;;;;;40.58;22.38;;;0.20;99.90;;;;;;4783420;29;20118;-86
2021/12/23 08:35:00;;;;;;;42.88;21.58;;;0.10;99.90;;;;;;4769877;30;20039;-84
2021/12/23 08:37:26;;;;;;;44.00;24.15;;;0.10;99.90;;;;;;4782988;29;20046;-89
2021/12/23 08:39:53;;;;;;;42.55;23.40;;;0.20;99.90;;;;;;4798045;29;20263;-86
2021/12/23 08:42:20;;;;;;;41.97;23.63;;;0.10;99.90;;;;;;4774450;29;20154;-87
2021/12/23 08:44:46;;;;;;;46.30;24.23;;;0.20;99.90;;;;;;4775105;29;20050;-87
2021/12/23 08:47:13;;;;;;;41.65;20.70;;;0.20;99.90;;;;;;4777815;29;20042;-85
2021/12/23 08:49:42;;;;;;;43.47;23.42;;;0.20;99.90;;;;;;4775040;29;20451;-85
2021/12/23 08:52:08;;;;;;;41.42;20.42;;;0.20;99.90;;;;;;4777277;29;20088;-84
2021/12/23 08:54:33;;;;;;;37.20;18.70;;;0.20;99.90;;;;;;4769515;29;20492;-86
2021/12/23 08:56:59;;;;;;;48.25;25.60;;;0.20;99.90;;;;;;4756382;30;20488;-88
2021/12/23 08:59:26;;;;;;;47.20;25.20;;;0.20;99.90;;;;;;4755945;29;20092;-89
2021/12/23 09:01:52;;;;;;;48.97;25.38;;;0.20;99.90;;;;;;4779068;29;20138;-85
2021/12/23 09:04:18;;;;;;;45.70;23.60;;;0.20;99.90;;;;;;4775302;29;20050;-85
2021/12/23 09:06:45;;;;;;;50.30;25.08;;;0.10;99.90;;;;;;4794643;29;20051;-87
2021/12/23 09:09:11;;;;;;;56.72;28.20;;;0.20;99.90;;;;;;4770231;29;20043;-85
2021/12/23 09:11:37;;;;;;;53.85;27.30;;;0.20;99.90;;;;;;4753116;29;20569;-85
2021/12/23 09:14:03;;;;;;;51.28;25.95;;;0.20;99.90;;;;;;4769325;29;20039;-86
2021/12/23 09:16:29;;;;;;;57.20;27.65;;;0.20;99.90;;;;;;4772479;29;20210;-84
2021/12/23 09:18:54;;;;;;;55.70;27.80;;;0.20;99.90;;;;;;4755183;30;20146;-86
2021/12/23 09:21:20;;;;;;;61.50;29.75;;;0.20;99.90;;;;;;4775588;29;20051;-88
2021/12/23 09:23:46;;;;;;;58.05;27.65;;;0.20;99.90;;;;;;4754945;29;20046;-86
2021/12/23 09:26:12;;;;;;;59.65;29.40;;;0.20;99.90;;;;;;4781282;29;20433;-86
2021/12/23 09:33:49;;;;;;;61.15;29.38;;;0.20;99.90;;;;;;4786575;29;20052;-84
2021/12/23 09:36:15;;;;;;;63.38;29.15;;;0.20;99.90;;;;;;4755167;29;20380;-87
2021/12/23 09:38:41;;;;;;;66.10;31.75;;;0.20;99.90;;;;;;4753543;29;20034;-87
2021/12/23 09:41:19;;;;;;;65.20;29.55;;;0.20;99.90;;;;;;4766522;29;20050;-86
2021/12/23 09:43:47;;;;;;;63.08;30.55;;;0.20;99.90;;;;;;4784078;29;20047;-86
2021/12/23 09:46:15;;;;;;;66.70;30.77;;;0.20;99.90;;;;;;4785002;29;20129;-85
2021/12/23 09:48:43;;;;;;;68.88;32.83;;;0.20;99.90;;;;;;4787632;29;20046;-87
2021/12/23 09:51:13;;;;;;;66.50;31.20;;;0.20;99.90;;;;;;4782488;29;20046;-86
2021/12/23 09:53:42;;;;;;;78.50;35.50;;;0.30;99.90;;;;;;4784811;29;20043;-91
2021/12/23 09:56:09;;;;;;;80.57;36.15;;;0.20;99.90;;;;;;4785971;29;20141;-87
2021/12/23 09:58:35;;;;;;;85.85;36.50;;;0.30;99.90;;;;;;4769439;29;20031;-88
2021/12/23 10:01:02;;;;;;;76.65;35.42;;;0.30;99.90;;;;;;4780153;29;20070;-85
2021/12/23 10:03:30;;;;;;;77.20;35.78;;;0.30;99.90;;;;;;4784622;29;20314;-86
2021/12/23 10:05:59;;;;;;;79.32;35.05;;;0.40;99.90;;;;;;4785714;29;20456;-86
2021/12/23 10:08:26;;;;;;;86.50;36.58;;;0.30;99.90;;;;;;4777088;29;20129;-87
2021/12/23 10:11:01;;;;;;;89.03;35.67;;;0.30;99.90;;;;;;4779522;29;20077;-87
2021/12/23 10:30:28;;;;;;;84.30;35.50;;;0.40;99.90;;;;;;4792735;29;20082;-90
2021/12/23 10:38:50;;;;;;;87.72;36.17;;;0.40;99.90;;;;;;4793721;29;20130;-87
2021/12/23 10:41:19;;;;;;;81.15;35.45;;;0.50;99.90;;;;;;4805935;29;20085;-87
2021/12/23 10:43:58;;;;;;;86.30;36.97;;;0.40;99.90;;;;;;4787881;29;20576;-87
2021/12/23 10:46:25;;;;;;;85.85;35.70;;;0.50;99.90;;;;;;4777518;29;20395;-87
2021/12/23 10:52:03;;;;;;;105.07;39.15;;;0.50;99.90;;;;;;4805596;29;20170;-86
2021/12/23 11:00:35;;;;;;;89.85;37.78;;;0.50;99.90;;;;;;4808104;29;20054;-87
2021/12/23 11:03:06;;;;;;;92.03;36.70;;;0.50;99.90;;;;;;4803123;29;20054;-85
2021/12/23 11:05:37;;;;;;;77.25;32.65;;;0.50;99.90;;;;;;4788850;29;20057;-90
2021/12/23 11:08:16;;;;;;;78.03;33.80;;;0.40;99.90;;;;;;4762617;29;20035;-86
2021/12/23 11:36:15;;;;;;;100.88;40.50;;;0.50;99.90;;;;;;4802572;29;20133;-88
2021/12/23 11:39:00;;;;;;;94.65;36.85;;;0.50;99.90;;;;;;4791258;29;20055;-89
2021/12/23 11:43:57;;;;;;;100.72;39.05;;;0.50;99.90;;;;;;4789300;29;20112;-89
2021/12/23 11:46:43;;;;;;;112.00;43.15;;;0.50;99.90;;;;;;4793738;29;20053;-87
2021/12/23 11:49:12;;;;;;;109.70;42.88;;;0.50;99.90;;;;;;4794956;29;20043;-86
2021/12/23 11:54:08;;;;;;;113.85;42.13;;;0.50;99.90;;;;;;4809863;29;20504;-86
2021/12/23 11:56:39;;;;;;;117.60;44.90;;;0.50;99.90;;;;;;4767832;29;20105;-85
2021/12/23 11:59:06;;;;;;;108.32;42.90;;;0.50;99.90;;;;;;4783406;29;20117;-84
2021/12/23 12:01:45;;;;;;;102.25;39.33;;;0.50;99.90;;;;;;4785946;29;20047;-87
2021/12/23 12:04:20;;;;;;;96.88;39.72;;;0.50;99.90;;;;;;4784630;29;20042;-89
2021/12/23 12:06:47;;;;;;;120.88;42.85;;;0.50;99.90;;;;;;4769418;29;20042;-86
2021/12/23 12:09:15;;;;;;;110.15;42.70;;;0.60;99.90;;;;;;4788056;29;20075;-86
2021/12/23 12:11:47;;;;;;;105.50;40.92;;;0.50;99.90;;;;;;4787754;29;20572;-87
2021/12/23 12:14:34;;;;;;;120.53;44.17;;;0.50;99.90;;;;;;4783267;29;20064;-85
2021/12/23 12:17:32;;;;;;;114.30;44.92;;;0.60;99.90;;;;;;4788222;29;20042;-85
2021/12/23 12:20:10;;;;;;;127.97;44.33;;;0.60;99.90;;;;;;4781938;29;20360;-86
2021/12/23 12:25:04;;;;;;;128.57;45.28;;;0.60;99.90;;;;;;4817737;29;20055;-86
2021/12/23 12:27:30;;;;;;;126.35;44.45;;;0.60;99.90;;;;;;4793572;29;20086;-86
2021/12/23 12:30:17;;;;;;;105.60;40.28;;;0.60;99.90;;;;;;4797381;29;20072;-85
2021/12/23 12:32:44;;;;;;;116.38;41.90;;;0.60;99.90;;;;;;4803806;29;20464;-87
2021/12/23 12:35:13;;;;;;;113.13;43.45;;;0.70;99.90;;;;;;4784531;29;20514;-86
2021/12/23 12:37:41;;;;;;;115.97;43.17;;;0.70;99.90;;;;;;4800793;29;20046;-85
2021/12/23 12:40:09;;;;;;;116.03;40.60;;;0.70;99.90;;;;;;4784046;29;20396;-84
2021/12/23 12:42:40;;;;;;;115.15;44.88;;;0.70;99.90;;;;;;4782878;29;20046;-86
2021/12/23 12:45:15;;;;;;;124.82;44.03;;;0.70;99.90;;;;;;4797813;29;20521;-86
2021/12/23 12:47:52;;;;;;;109.32;40.53;;;0.70;99.90;;;;;;4780739;29;20115;-86
2021/12/23 12:50:21;;;;;;;99.28;37.33;;;0.70;99.90;;;;;;4798302;29;20043;-86
2021/12/23 12:52:49;;;;;;;94.60;37.20;;;0.70;99.90;;;;;;4792619;29;20042;-85
2021/12/23 12:55:23;;;;;;;94.13;36.80;;;0.70;99.90;;;;;;4795985;29;20039;-83
2021/12/23 12:57:56;;;;;;;119.72;44.60;;;0.70;99.90;;;;;;4793526;29;20050;-85
2021/12/23 13:00:24;;;;;;;111.35;41.88;;;0.70;99.90;;;;;;4792008;29;20102;-81
2021/12/23 13:02:58;;;;;;;114.22;42.20;;;0.80;99.90;;;;;;4797871;29;20585;-83
2021/12/23 13:05:27;;;;;;;116.68;42.70;;;0.80;99.90;;;;;;4798009;29;20038;-84
2021/12/23 13:07:53;;;;;;;93.13;35.83;;;0.80;99.90;;;;;;4795600;29;20046;-83
2021/12/23 13:10:27;;;;;;;105.35;41.08;;;0.80;99.90;;;;;;4783195;29;20137;-85
2021/12/23 13:13:04;;;;;;;100.50;37.67;;;0.80;99.90;;;;;;4794849;29;20038;-83
2021/12/23 13:15:33;;;;;;;104.32;39.88;;;0.80;99.90;;;;;;4798622;29;20065;-87
2021/12/23 13:18:02;;;;;;;113.43;43.03;;;0.80;99.90;;;;;;4791697;29;20074;-88
2021/12/23 13:20:50;;;;;;;107.53;41.13;;;0.80;99.90;;;;;;4792699;29;20069;-86
2021/12/23 13:23:29;;;;;;;102.65;39.70;;;0.80;99.90;;;;;;4793553;29;20503;-83
2021/12/23 13:26:02;;;;;;;107.32;43.28;;;0.80;99.90;;;;;;4797669;29;20126;-85
2021/12/23 13:28:50;;;;;;;91.78;37.40;;;0.80;99.90;;;;;;4810500;29;20098;-84
2021/12/23 13:31:25;;;;;;;106.88;41.38;;;0.80;99.90;;;;;;4805148;29;20035;-85
2021/12/23 13:33:57;;;;;;;91.25;35.50;;;0.80;99.90;;;;;;4794383;29;20379;-84
2021/12/23 13:36:32;;;;;;;113.40;43.27;;;0.80;99.90;;;;;;4792146;29;20057;-85
2021/12/23 13:39:00;;;;;;;104.28;38.45;;;0.80;99.90;;;;;;4802678;29;20303;-84
2021/12/23 13:41:36;;;;;;;110.28;41.55;;;0.80;99.90;;;;;;4793456;29;20038;-87
2021/12/23 13:44:20;;;;;;;107.70;42.75;;;0.80;99.90;;;;;;4785233;29;20403;-86
2021/12/23 13:47:01;;;;;;;104.28;40.50;;;0.70;99.90;;;;;;4802755;29;20042;-87
2021/12/23 13:49:30;;;;;;;125.30;42.85;;;0.80;99.90;;;;;;4810187;29;20038;-89
2021/12/23 13:51:56;;;;;;;111.55;41.50;;;0.70;99.90;;;;;;4780614;29;20495;-87
2021/12/23 13:54:22;;;;;;;122.07;44.83;;;0.80;99.90;;;;;;4765658;29;20079;-87